Terminal Aerodrome Forecast
Issued by NWS

Home | Current Version | Previous Version | Text Only | Print | Product List | Glossary Off
Versions: 1 2 3 4 5 6 7 8 9 10 11 12 13 14 15 16 17 18 19 20

199
FTUS43 KBIS 202008 AAA
TAFJMS
TAF AMD
KJMS 202008Z 2020/2118 28020G30KT P6SM SCT250
     FM210000 31023G36KT P6SM SCT250
     FM210800 32022G33KT P6SM BKN040
     FM211100 32022G32KT P6SM BKN025
     FM211400 32016G24KT P6SM SCT030=

USA.gov is the U.S. government's official web portal to all federal, state and local government web resources and services.